createdAt,value
2022-10-06T00:00:53.924Z,101712.16
2022-10-06T00:03:23.866Z,101720.69
2022-10-06T00:05:52.551Z,101715.06
2022-10-06T00:08:20.449Z,101725.00
2022-10-06T00:10:48.273Z,101731.34
2022-10-06T00:13:16.147Z,101737.31
2022-10-06T00:15:44.985Z,101730.66
2022-10-06T00:18:13.006Z,101745.41
2022-10-06T00:20:43.508Z,101761.25
2022-10-06T00:23:11.431Z,101768.34
2022-10-06T00:25:39.289Z,101757.31
2022-10-06T00:28:07.123Z,101774.66
2022-10-06T00:30:35.035Z,101781.88
2022-10-06T00:33:04.624Z,101781.91
2022-10-06T00:35:35.188Z,101793.72
2022-10-06T00:38:05.197Z,101787.72
2022-10-06T00:40:33.729Z,101794.06
2022-10-06T00:43:03.578Z,101789.91
2022-10-06T00:45:38.321Z,101800.59
2022-10-06T00:48:11.565Z,101800.41
2022-10-06T00:50:40.726Z,101802.28
2022-10-06T00:53:09.953Z,101805.72
2022-10-06T00:55:37.848Z,101815.78
2022-10-06T00:58:07.651Z,101819.25
2022-10-06T01:00:36.273Z,101819.34
2022-10-06T01:03:08.727Z,101827.44
2022-10-06T01:05:41.691Z,101824.03
2022-10-06T01:08:11.210Z,101829.75
2022-10-06T01:10:39.317Z,101833.78
2022-10-06T01:13:07.730Z,101844.94
2022-10-06T01:15:35.890Z,101838.44
2022-10-06T01:18:09.962Z,101854.50
2022-10-06T01:20:38.440Z,101844.41
2022-10-06T01:23:10.190Z,101866.97
2022-10-06T01:25:38.833Z,101873.97
2022-10-06T01:28:09.147Z,101868.38
2022-10-06T01:30:41.706Z,101878.81
2022-10-06T01:33:11.277Z,101898.72
2022-10-06T01:35:39.770Z,101877.28
2022-10-06T01:38:09.352Z,101878.09
2022-10-06T01:40:37.289Z,101871.44
2022-10-06T01:43:05.121Z,101897.44
2022-10-06T01:45:33.040Z,101887.72
2022-10-06T01:48:01.037Z,101894.41
2022-10-06T01:50:29.112Z,101908.31
2022-10-06T01:52:57.511Z,101897.38
2022-10-06T01:55:27.238Z,101915.66
2022-10-06T01:57:57.635Z,101912.75
2022-10-06T02:00:26.144Z,101917.03
2022-10-06T02:02:54.037Z,101918.59
2022-10-06T02:05:21.926Z,101930.53
2022-10-06T02:07:52.598Z,101934.16
2022-10-06T02:10:20.900Z,101948.03
2022-10-06T02:12:53.571Z,101945.94
2022-10-06T02:15:23.192Z,101941.97
2022-10-06T02:17:52.400Z,101955.59
2022-10-06T02:20:20.368Z,101961.47
2022-10-06T02:22:48.346Z,101968.94
2022-10-06T02:25:17.215Z,101967.84
2022-10-06T02:27:45.514Z,101972.63
2022-10-06T02:30:15.950Z,101972.41
2022-10-06T02:32:45.145Z,101983.28
2022-10-06T02:35:13.836Z,101994.13
2022-10-06T02:37:42.584Z,102000.78
2022-10-06T02:40:13.335Z,101998.72
2022-10-06T02:42:41.305Z,102002.41
2022-10-06T02:45:11.000Z,102004.84
2022-10-06T02:47:40.382Z,102020.72
2022-10-06T02:50:09.649Z,102024.81
2022-10-06T02:52:41.151Z,102022.94
2022-10-06T02:55:10.361Z,102033.16
2022-10-06T02:57:38.551Z,102037.00
2022-10-06T03:00:08.696Z,102041.09
2022-10-06T03:02:36.821Z,102037.97
2022-10-06T03:05:07.989Z,102050.78
2022-10-06T03:07:35.953Z,102045.75
2022-10-06T03:10:03.884Z,102058.63
2022-10-06T03:12:31.981Z,102067.94
2022-10-06T03:15:00.047Z,102075.22
2022-10-06T03:17:28.497Z,102072.09
2022-10-06T03:19:58.155Z,102067.22
2022-10-06T03:22:28.522Z,102074.81
2022-10-06T03:24:58.430Z,102087.88
2022-10-06T03:27:26.967Z,102080.31
2022-10-06T03:30:00.514Z,102084.09
2022-10-06T03:32:30.641Z,102091.19
2022-10-06T03:34:58.561Z,102086.00
2022-10-06T03:37:29.194Z,102083.03
2022-10-06T03:39:57.321Z,102091.31
2022-10-06T03:42:26.064Z,102085.84
2022-10-06T03:44:54.640Z,102105.50
2022-10-06T03:47:22.781Z,102110.44
2022-10-06T03:49:50.748Z,102126.28
2022-10-06T03:52:23.597Z,102123.94
2022-10-06T03:54:55.245Z,102127.88
2022-10-06T03:57:23.476Z,102133.09
2022-10-06T03:59:51.792Z,102144.72
2022-10-06T04:02:19.882Z,102146.06
2022-10-06T04:04:47.759Z,102150.16
2022-10-06T04:07:15.600Z,102144.94
2022-10-06T04:09:43.865Z,102142.66
2022-10-06T04:12:14.696Z,102143.34
2022-10-06T04:14:44.330Z,102151.66
2022-10-06T04:17:12.377Z,102147.03
2022-10-06T04:19:41.764Z,102155.19
2022-10-06T04:22:09.632Z,102161.53
2022-10-06T04:24:37.846Z,102168.56
2022-10-06T04:27:23.437Z,102182.13
2022-10-06T04:29:59.160Z,102186.56
2022-10-06T04:32:27.376Z,102179.41
2022-10-06T04:34:55.562Z,102182.72
2022-10-06T04:37:25.198Z,102192.09
2022-10-06T04:39:53.149Z,102187.94
2022-10-06T04:42:21.026Z,102195.09
2022-10-06T04:44:48.953Z,102202.78
2022-10-06T04:47:18.455Z,102199.78
2022-10-06T04:49:47.351Z,102205.50
2022-10-06T04:52:15.583Z,102214.91
2022-10-06T04:54:43.664Z,102221.13
2022-10-06T04:57:11.577Z,102223.47
2022-10-06T04:59:59.444Z,102230.44
2022-10-06T05:02:31.577Z,102220.44
2022-10-06T05:04:59.629Z,102232.53
2022-10-06T05:07:28.381Z,102231.94
2022-10-06T05:09:58.284Z,102239.69
2022-10-06T05:12:26.474Z,102247.22
2022-10-06T05:14:54.997Z,102258.66
2022-10-06T05:17:23.171Z,102262.00
2022-10-06T05:19:54.026Z,102266.47
2022-10-06T05:22:21.889Z,102270.91
2022-10-06T05:24:53.761Z,102281.00
2022-10-06T05:27:21.865Z,102283.41
2022-10-06T05:29:49.763Z,102299.31
2022-10-06T05:32:18.543Z,102299.31
2022-10-06T05:34:46.465Z,102308.41
2022-10-06T05:37:15.771Z,102311.56
2022-10-06T05:39:44.251Z,102307.78
2022-10-06T05:42:12.075Z,102319.06
2022-10-06T05:44:39.896Z,102324.09
2022-10-06T05:47:11.026Z,102330.88
2022-10-06T05:49:39.384Z,102323.94
2022-10-06T05:52:07.512Z,102331.16
2022-10-06T05:54:38.764Z,102337.75
2022-10-06T05:57:08.548Z,102344.25
2022-10-06T05:59:36.673Z,102332.75
2022-10-06T06:02:05.833Z,102341.50
2022-10-06T06:04:39.012Z,102346.41
2022-10-06T06:07:07.404Z,102349.16
2022-10-06T06:09:35.330Z,102353.16
2022-10-06T06:12:07.519Z,102353.44
2022-10-06T06:15:06.936Z,102363.38
2022-10-06T06:17:42.644Z,102370.59
2022-10-06T06:20:11.254Z,102378.47
2022-10-06T06:22:39.380Z,102382.38
2022-10-06T06:25:08.893Z,102386.25
2022-10-06T06:27:42.123Z,102392.88
2022-10-06T06:30:11.358Z,102392.59
2022-10-06T06:32:40.032Z,102398.34
2022-10-06T06:35:10.441Z,102397.38
2022-10-06T06:37:38.614Z,102396.78
2022-10-06T06:40:07.937Z,102404.56
2022-10-06T06:42:40.189Z,102421.09
2022-10-06T06:45:23.415Z,102414.91
2022-10-06T06:48:02.343Z,102414.06
2022-10-06T06:50:31.713Z,102419.66
2022-10-06T06:53:02.605Z,102416.22
2022-10-06T06:55:32.588Z,102421.97
2022-10-06T06:58:02.910Z,102436.81
2022-10-06T07:00:35.938Z,102440.81
2022-10-06T07:03:06.192Z,102442.88
2022-10-06T07:05:36.251Z,102444.44
2022-10-06T07:08:04.306Z,102447.47
2022-10-06T07:10:36.196Z,102453.66
2022-10-06T07:13:07.037Z,102450.63
2022-10-06T07:15:52.513Z,102461.44
2022-10-06T07:18:38.369Z,102463.28
2022-10-06T07:21:27.988Z,102463.88
2022-10-06T07:24:13.348Z,102479.59
2022-10-06T07:26:41.766Z,102475.69
2022-10-06T07:29:11.757Z,102484.00
2022-10-06T07:31:43.534Z,102474.53
2022-10-06T07:34:11.559Z,102486.25
2022-10-06T07:36:39.617Z,102494.41
2022-10-06T07:39:10.508Z,102500.03
2022-10-06T07:41:39.157Z,102503.81
2022-10-06T07:44:08.127Z,102506.56
2022-10-06T07:46:37.942Z,102516.19
2022-10-06T07:49:28.402Z,102529.47
2022-10-06T07:51:56.725Z,102534.06
2022-10-06T07:54:27.392Z,102526.88
2022-10-06T07:57:20.203Z,102539.28
2022-10-06T07:59:48.334Z,102544.00
2022-10-06T08:02:18.021Z,102543.88
2022-10-06T08:04:45.929Z,102544.13
2022-10-06T08:07:13.834Z,102543.81
2022-10-06T08:09:41.720Z,102564.78
2022-10-06T08:12:23.475Z,102552.22
2022-10-06T08:14:51.571Z,102540.06
2022-10-06T08:17:21.152Z,102553.91
2022-10-06T08:19:49.292Z,102554.50
2022-10-06T08:22:17.199Z,102555.25
2022-10-06T08:25:04.753Z,102560.25
2022-10-06T08:27:34.339Z,102572.34
2022-10-06T08:30:02.609Z,102581.16
2022-10-06T08:32:32.124Z,102585.63
2022-10-06T08:35:00.102Z,102585.50
2022-10-06T08:37:28.016Z,102587.50
2022-10-06T08:39:56.237Z,102594.84
2022-10-06T08:42:31.934Z,102600.75
2022-10-06T08:45:03.312Z,102598.91
2022-10-06T08:47:36.454Z,102607.69
2022-10-06T08:50:06.724Z,102596.00
2022-10-06T08:52:47.362Z,102596.00
2022-10-06T08:55:29.137Z,102619.66
2022-10-06T08:58:14.443Z,102616.38
2022-10-06T09:00:42.387Z,102628.03
2022-10-06T09:03:23.090Z,102613.44
2022-10-06T09:05:53.757Z,102628.28
2022-10-06T09:08:38.619Z,102621.22
2022-10-06T09:11:17.522Z,102625.22
2022-10-06T09:13:53.326Z,102609.19
2022-10-06T09:16:29.130Z,102634.94
2022-10-06T09:19:09.280Z,102637.50
2022-10-06T09:21:42.368Z,102639.53
2022-10-06T09:24:16.430Z,102646.91
2022-10-06T09:26:46.543Z,102653.72
2022-10-06T09:29:15.100Z,102643.03
2022-10-06T09:31:47.503Z,102652.53
2022-10-06T09:34:22.717Z,102652.09
2022-10-06T09:37:03.081Z,102664.19
2022-10-06T09:39:36.577Z,102655.91
2022-10-06T09:42:07.596Z,102654.31
2022-10-06T09:44:48.078Z,102660.81
2022-10-06T09:47:36.807Z,102658.38
2022-10-06T09:50:22.131Z,102673.78
2022-10-06T09:53:16.330Z,102669.78
2022-10-06T09:55:52.037Z,102669.41
2022-10-06T09:58:23.804Z,102672.94
2022-10-06T10:00:57.317Z,102688.94
2022-10-06T10:03:27.237Z,102677.69
2022-10-06T10:05:56.784Z,102676.03
2022-10-06T10:08:27.320Z,102690.00
2022-10-06T10:11:28.044Z,102684.63
2022-10-06T10:13:57.842Z,102688.22
2022-10-06T10:16:27.128Z,102692.25
2022-10-06T10:18:55.364Z,102699.41
2022-10-06T10:21:30.720Z,102693.81
2022-10-06T10:24:00.364Z,102695.59
2022-10-06T10:26:43.632Z,102696.34
2022-10-06T10:29:38.154Z,102703.28
2022-10-06T10:32:13.523Z,102711.19
2022-10-06T10:35:00.039Z,102708.97
2022-10-06T10:37:36.880Z,102696.22
2022-10-06T10:40:15.228Z,102702.56
2022-10-06T10:42:48.569Z,102707.81
2022-10-06T10:45:24.200Z,102702.91
2022-10-06T10:47:52.215Z,102712.38
2022-10-06T10:50:26.825Z,102712.44
2022-10-06T10:53:02.289Z,102710.00
2022-10-06T10:55:35.810Z,102703.50
2022-10-06T10:58:14.572Z,102710.66
2022-10-06T11:00:47.197Z,102725.59
2022-10-06T11:03:15.407Z,102714.50
2022-10-06T11:06:13.933Z,102718.91
2022-10-06T11:08:50.689Z,102723.84
2022-10-06T11:11:32.446Z,102730.09
2022-10-06T11:14:03.710Z,102721.38
2022-10-06T11:16:42.152Z,102721.16
2022-10-06T11:19:18.323Z,102767.75
2022-10-06T11:21:58.063Z,102722.59
2022-10-06T11:24:38.607Z,102736.72
2022-10-06T11:27:28.725Z,102736.09
2022-10-06T11:30:04.304Z,102736.50
2022-10-06T11:32:45.955Z,102760.47
2022-10-06T11:35:23.039Z,102744.31
2022-10-06T11:37:57.009Z,102740.28
2022-10-06T11:40:57.724Z,102750.94
2022-10-06T11:43:33.587Z,102729.34
2022-10-06T11:46:11.383Z,102734.84
2022-10-06T11:48:39.670Z,102735.00
2022-10-06T11:51:29.157Z,102730.94
2022-10-06T11:53:57.322Z,102722.84
2022-10-06T11:56:41.401Z,102722.88
2022-10-06T11:59:31.620Z,102725.41
2022-10-06T12:02:00.859Z,102734.84
2022-10-06T12:04:29.145Z,102725.94
2022-10-06T12:07:06.279Z,102725.59
2022-10-06T12:10:16.224Z,102725.22
2022-10-06T12:13:06.253Z,102723.31
2022-10-06T12:19:12.042Z,102735.03
2022-10-06T12:21:47.988Z,102733.75
2022-10-06T12:24:37.106Z,102729.75
2022-10-06T12:27:45.526Z,102731.28
2022-10-06T12:30:22.691Z,102727.44
2022-10-06T12:32:54.642Z,102719.06
2022-10-06T12:35:34.692Z,102723.19
2022-10-06T12:38:06.097Z,102723.94
2022-10-06T12:40:55.608Z,102734.31
2022-10-06T12:43:54.928Z,102724.88
2022-10-06T12:46:30.569Z,102724.38
2022-10-06T12:49:13.070Z,102728.91
2022-10-06T12:51:42.906Z,102730.31
2022-10-06T12:54:19.713Z,102723.75
2022-10-06T12:56:58.987Z,102729.97
2022-10-06T12:59:29.473Z,102736.69
2022-10-06T13:02:01.092Z,102724.97
2022-10-06T13:04:40.071Z,102724.00
2022-10-06T13:07:17.169Z,102758.78
2022-10-06T13:09:46.653Z,102738.16
2022-10-06T13:12:26.939Z,102731.34
2022-10-06T13:15:11.406Z,102724.63
2022-10-06T13:17:43.849Z,102717.88
2022-10-06T13:20:29.604Z,102732.59
2022-10-06T13:22:59.552Z,102727.38
2022-10-06T13:25:35.550Z,102728.66
2022-10-06T13:28:04.322Z,102727.72
2022-10-06T13:30:37.723Z,102728.03
2022-10-06T13:33:09.045Z,102728.72
2022-10-06T13:35:37.390Z,102720.97
2022-10-06T13:38:06.414Z,102727.28
2022-10-06T13:40:50.379Z,102722.19
2022-10-06T13:43:20.674Z,102720.69
2022-10-06T13:45:49.454Z,102723.03
2022-10-06T13:48:22.335Z,102729.97
2022-10-06T13:50:53.010Z,102713.59
2022-10-06T13:53:27.669Z,102724.06
2022-10-06T13:55:56.221Z,102737.81
2022-10-06T13:58:27.934Z,102718.47
2022-10-06T14:01:01.114Z,102740.94
2022-10-06T14:06:16.842Z,102746.13
2022-10-06T14:08:47.375Z,102735.19
2022-10-06T14:11:22.311Z,102733.75
2022-10-06T14:13:54.782Z,102728.03
2022-10-06T14:16:24.859Z,102725.03
2022-10-06T14:18:59.984Z,102724.41
2022-10-06T14:21:35.551Z,102738.06
2022-10-06T14:24:10.178Z,102722.97
2022-10-06T14:26:38.425Z,102729.88
2022-10-06T14:29:06.602Z,102736.69
2022-10-06T14:31:37.756Z,102735.88
2022-10-06T14:34:13.973Z,102734.41
2022-10-06T14:36:51.548Z,102731.19
2022-10-06T14:39:25.088Z,102737.94
2022-10-06T14:41:53.437Z,102737.44
2022-10-06T14:44:22.118Z,102744.91
2022-10-06T14:46:51.219Z,102744.94
2022-10-06T14:49:24.278Z,102734.31
2022-10-06T14:51:55.920Z,102735.56
2022-10-06T14:54:24.363Z,102736.25
2022-10-06T14:56:55.395Z,102733.75
2022-10-06T14:59:24.765Z,102733.56
2022-10-06T15:01:53.371Z,102742.41
2022-10-06T15:04:32.665Z,102737.66
2022-10-06T15:07:20.690Z,102738.19
2022-10-06T15:09:48.846Z,102731.06
2022-10-06T15:12:18.001Z,102733.59
2022-10-06T15:14:46.305Z,102734.06
2022-10-06T15:17:15.843Z,102736.28
2022-10-06T15:19:54.068Z,102731.81
2022-10-06T15:22:26.541Z,102729.47
2022-10-06T15:25:17.125Z,102739.28
2022-10-06T15:28:22.808Z,102730.28
2022-10-06T15:30:56.733Z,102734.31
2022-10-06T15:33:25.738Z,102719.28
2022-10-06T15:36:17.960Z,102712.31
2022-10-06T15:38:49.358Z,102723.38
2022-10-06T15:41:21.018Z,102728.16
2022-10-06T15:43:55.991Z,102720.16
2022-10-06T15:46:30.175Z,102733.59
2022-10-06T15:49:12.912Z,102725.41
2022-10-06T15:51:49.095Z,102724.84
2022-10-06T15:54:22.118Z,102724.06
2022-10-06T15:57:19.711Z,102730.00
2022-10-06T15:59:58.937Z,102724.38
2022-10-06T16:02:36.051Z,102717.53
2022-10-06T16:05:45.193Z,102722.16
2022-10-06T16:08:24.665Z,102713.66
2022-10-06T16:10:56.388Z,102717.53
2022-10-06T16:13:39.704Z,102729.47
2022-10-06T16:16:22.024Z,102733.31
2022-10-06T16:19:29.701Z,102726.22
2022-10-06T16:22:06.679Z,102721.72
2022-10-06T16:24:58.292Z,102713.16
2022-10-06T16:27:40.649Z,102721.09
2022-10-06T16:30:15.813Z,102717.22
2022-10-06T16:32:44.882Z,102717.34
2022-10-06T16:35:18.342Z,102721.50
2022-10-06T16:37:56.066Z,102724.31
2022-10-06T16:40:42.723Z,102729.28
2022-10-06T16:43:11.250Z,102733.44
2022-10-06T16:45:40.038Z,102723.00
2022-10-06T16:48:08.395Z,102727.72
2022-10-06T16:50:37.021Z,102730.06
2022-10-06T16:53:05.443Z,102733.38
2022-10-06T16:55:35.493Z,102731.22
2022-10-06T16:58:05.756Z,102734.69
2022-10-06T17:00:35.223Z,102736.94
2022-10-06T17:03:07.810Z,102737.56
2022-10-06T17:05:41.384Z,102737.78
2022-10-06T17:08:10.055Z,102739.19
2022-10-06T17:10:38.460Z,102747.13
2022-10-06T17:13:09.568Z,102745.41
2022-10-06T17:15:40.256Z,102741.03
2022-10-06T17:18:11.611Z,102743.47
2022-10-06T17:20:39.863Z,102733.59
2022-10-06T17:23:09.940Z,102743.78
2022-10-06T17:25:37.947Z,102739.97
2022-10-06T17:28:07.182Z,102750.19
2022-10-06T17:30:35.221Z,102740.28
2022-10-06T17:33:03.280Z,102740.53
2022-10-06T17:35:31.225Z,102749.06
2022-10-06T17:38:01.624Z,102752.16
2022-10-06T17:40:31.051Z,102756.06
2022-10-06T17:42:59.226Z,102756.28
2022-10-06T17:45:28.743Z,102756.03
2022-10-06T17:47:56.943Z,102753.19
2022-10-06T17:50:25.509Z,102757.66
2022-10-06T17:52:53.483Z,102756.81
2022-10-06T17:55:22.903Z,102749.34
2022-10-06T17:57:51.106Z,102758.38
2022-10-06T18:00:19.643Z,102755.00
2022-10-06T18:02:49.089Z,102761.56
2022-10-06T18:05:17.837Z,102758.50
2022-10-06T18:07:45.897Z,102758.13
2022-10-06T18:10:31.803Z,102756.78
2022-10-06T18:13:00.566Z,102759.41
2022-10-06T18:15:30.339Z,102762.28
2022-10-06T18:17:59.803Z,102758.28
2022-10-06T18:20:41.269Z,102755.06
2022-10-06T18:23:12.166Z,102757.03
2022-10-06T18:25:45.258Z,102763.91
2022-10-06T18:28:13.464Z,102760.25
2022-10-06T18:30:44.259Z,102764.31
2022-10-06T18:36:18.920Z,102751.84
2022-10-06T18:38:52.667Z,102754.28
2022-10-06T18:41:30.870Z,102750.56
2022-10-06T18:44:00.283Z,102757.88
2022-10-06T18:46:51.609Z,102755.25
2022-10-06T18:49:24.827Z,102748.75
2022-10-06T18:51:58.487Z,102747.59
2022-10-06T18:54:33.770Z,102753.22
2022-10-06T18:57:14.261Z,102750.34
2022-10-06T18:59:51.563Z,102752.38
2022-10-06T19:06:00.543Z,102751.81
2022-10-06T19:08:40.238Z,102752.66
2022-10-06T19:11:29.203Z,102761.00
2022-10-06T19:14:00.298Z,102758.16
2022-10-06T19:16:32.195Z,102757.59
2022-10-06T19:19:00.474Z,102750.84
2022-10-06T19:21:37.220Z,102756.31
2022-10-06T19:24:07.215Z,102759.34
2022-10-06T19:26:45.130Z,102752.66
2022-10-06T19:29:14.684Z,102751.53
2022-10-06T19:31:48.044Z,102755.41
2022-10-06T19:34:17.915Z,102754.44
2022-10-06T19:36:50.925Z,102751.97
2022-10-06T19:39:19.147Z,102748.34
2022-10-06T19:42:04.892Z,102752.53
2022-10-06T19:44:37.277Z,102756.28
2022-10-06T19:47:12.947Z,102748.66
2022-10-06T19:49:46.208Z,102753.38
2022-10-06T19:52:17.038Z,102747.81
2022-10-06T19:54:47.335Z,102753.09
2022-10-06T19:57:15.528Z,102749.97
2022-10-06T19:59:43.822Z,102750.97
2022-10-06T20:02:15.962Z,102743.44
2022-10-06T20:04:45.658Z,102745.78
2022-10-06T20:07:15.671Z,102744.47
2022-10-06T20:09:44.436Z,102748.31
2022-10-06T20:12:14.223Z,102745.59
2022-10-06T20:14:51.708Z,102738.53
2022-10-06T20:17:20.727Z,102736.19
2022-10-06T20:19:55.132Z,102742.25
2022-10-06T20:22:32.865Z,102748.63
2022-10-06T20:25:02.680Z,102753.50
2022-10-06T20:27:40.417Z,102752.50
2022-10-06T20:30:09.606Z,102753.19
2022-10-06T20:32:40.800Z,102751.25
2022-10-06T20:35:10.179Z,102751.84
2022-10-06T20:37:42.068Z,102750.00
2022-10-06T20:40:34.220Z,102744.78
2022-10-06T20:43:02.922Z,102742.34
2022-10-06T20:45:31.425Z,102738.72
2022-10-06T20:48:00.089Z,102746.09
2022-10-06T20:50:30.257Z,102734.03
2022-10-06T20:52:59.825Z,102736.03
2022-10-06T20:55:27.822Z,102731.28
2022-10-06T20:57:55.995Z,102733.63
2022-10-06T21:00:44.414Z,102738.47
2022-10-06T21:03:12.522Z,102740.94
2022-10-06T21:05:43.276Z,102736.06
2022-10-06T21:08:12.522Z,102736.78
2022-10-06T21:10:40.641Z,102723.13
2022-10-06T21:13:09.332Z,102714.25
2022-10-06T21:15:48.136Z,102723.25
2022-10-06T21:18:16.177Z,102725.09
2022-10-06T21:20:45.271Z,102717.19
2022-10-06T21:23:14.709Z,102715.53
2022-10-06T21:25:42.612Z,102716.94
2022-10-06T21:28:10.611Z,102713.66
2022-10-06T21:30:38.566Z,102708.53
2022-10-06T21:33:07.130Z,102700.97
2022-10-06T21:35:35.046Z,102700.66
2022-10-06T21:38:03.821Z,102701.97
2022-10-06T21:40:37.195Z,102697.22
2022-10-06T21:43:05.855Z,102687.41
2022-10-06T21:45:37.098Z,102693.88
2022-10-06T21:48:34.529Z,102691.31
2022-10-06T21:52:26.115Z,102681.22
2022-10-06T21:55:23.137Z,102677.88
2022-10-06T21:58:05.757Z,102668.81
2022-10-06T22:00:56.034Z,102667.63
2022-10-06T22:03:44.464Z,102665.63
2022-10-06T22:06:34.298Z,102662.22
2022-10-06T22:09:27.204Z,102652.84
2022-10-06T22:12:28.403Z,102652.22
2022-10-06T22:16:38.797Z,102652.38
2022-10-06T22:18:55.763Z,102649.59
2022-10-06T22:21:51.902Z,102652.44
2022-10-06T22:24:51.388Z,102640.34
2022-10-06T22:27:47.792Z,102634.63
2022-10-06T22:31:00.925Z,102642.88
2022-10-06T22:34:06.784Z,102633.78
2022-10-06T22:37:35.292Z,102634.63
2022-10-06T22:40:07.642Z,102634.03
2022-10-06T22:42:55.147Z,102625.25
2022-10-06T22:45:23.799Z,102629.16
2022-10-06T22:47:53.025Z,102618.75
2022-10-06T22:50:21.166Z,102626.16
2022-10-06T22:52:49.150Z,102621.97
2022-10-06T22:55:17.211Z,102616.50
2022-10-06T22:57:45.240Z,102624.19
2022-10-06T23:00:14.511Z,102614.31
2022-10-06T23:02:42.402Z,102611.56
2022-10-06T23:05:11.686Z,102610.28
2022-10-06T23:07:39.550Z,102602.63
2022-10-06T23:10:08.400Z,102607.31
2022-10-06T23:12:36.368Z,102601.53
2022-10-06T23:15:05.109Z,102599.00
2022-10-06T23:17:32.979Z,102595.03
2022-10-06T23:20:00.862Z,102580.63
2022-10-06T23:22:30.154Z,102586.00
2022-10-06T23:24:58.095Z,102584.56
2022-10-06T23:27:26.071Z,102593.06
2022-10-06T23:29:53.996Z,102584.94
2022-10-06T23:32:21.943Z,102585.22
2022-10-06T23:34:50.082Z,102585.34
2022-10-06T23:37:18.050Z,102580.22
2022-10-06T23:39:47.298Z,102577.78
2022-10-06T23:42:15.185Z,102576.75
2022-10-06T23:44:43.046Z,102567.66
2022-10-06T23:47:10.949Z,102572.50
2022-10-06T23:49:38.794Z,102568.50
2022-10-06T23:52:06.652Z,102564.78
2022-10-06T23:54:34.689Z,102565.69
2022-10-06T23:57:04.564Z,102570.84
2022-10-06T23:59:32.540Z,102567.09
